createdAt,value
2022-10-23T00:01:12.021Z,25.80
2022-10-23T00:03:39.524Z,25.75
2022-10-23T00:06:06.977Z,27.83
2022-10-23T00:08:34.488Z,25.60
2022-10-23T00:11:12.225Z,23.17
2022-10-23T00:13:40.008Z,24.73
2022-10-23T00:16:10.582Z,24.90
2022-10-23T00:18:38.479Z,27.70
2022-10-23T00:21:06.805Z,24.13
2022-10-23T00:23:34.288Z,25.27
2022-10-23T00:26:01.809Z,25.45
2022-10-23T00:28:32.297Z,25.17
2022-10-23T00:31:03.162Z,22.95
2022-10-23T00:33:30.568Z,26.88
2022-10-23T00:35:57.880Z,23.00
2022-10-23T00:38:25.406Z,26.88
2022-10-23T00:40:52.876Z,24.48
2022-10-23T00:43:20.881Z,28.85
2022-10-23T00:45:48.515Z,21.05
2022-10-23T00:48:16.315Z,27.73
2022-10-23T00:50:43.685Z,30.65
2022-10-23T00:53:11.211Z,29.50
2022-10-23T00:55:39.280Z,30.15
2022-10-23T00:58:06.587Z,27.48
2022-10-23T01:00:42.778Z,25.30
2022-10-23T01:03:10.189Z,24.70
2022-10-23T01:05:43.037Z,26.63
2022-10-23T01:08:17.771Z,27.30
2022-10-23T01:10:47.970Z,25.73
2022-10-23T01:13:29.892Z,32.17
2022-10-23T01:16:06.610Z,26.40
2022-10-23T01:21:24.591Z,24.63
2022-10-23T01:23:51.887Z,27.25
2022-10-23T01:26:27.494Z,27.45
2022-10-23T01:29:01.465Z,25.17
2022-10-23T01:31:33.297Z,29.02
2022-10-23T01:34:04.439Z,32.40
2022-10-23T01:36:34.334Z,23.48
2022-10-23T01:39:09.469Z,22.13
2022-10-23T01:41:48.722Z,26.38
2022-10-23T01:44:27.241Z,24.48
2022-10-23T01:46:55.750Z,26.75
2022-10-23T01:49:24.313Z,30.20
2022-10-23T01:51:57.472Z,28.00
2022-10-23T01:54:27.111Z,26.15
2022-10-23T01:59:27.834Z,27.00
2022-10-23T02:01:57.374Z,28.67
2022-10-23T02:06:52.363Z,24.48
2022-10-23T02:09:19.889Z,25.48
2022-10-23T02:12:02.678Z,24.80
2022-10-23T02:14:54.681Z,30.85
2022-10-23T02:17:40.763Z,25.60
2022-10-23T02:20:15.431Z,28.52
2022-10-23T02:22:45.915Z,26.52
2022-10-23T02:25:19.708Z,25.25
2022-10-23T02:27:51.643Z,24.05
2022-10-23T02:30:20.908Z,25.92
2022-10-23T02:32:55.675Z,23.02
2022-10-23T02:35:26.440Z,22.10
2022-10-23T02:38:02.958Z,23.02
2022-10-23T02:40:36.668Z,23.48
2022-10-23T02:43:14.204Z,22.20
2022-10-23T02:45:48.857Z,26.45
2022-10-23T02:48:29.779Z,27.20
2022-10-23T02:51:07.367Z,24.55
2022-10-23T02:53:54.059Z,25.15
2022-10-23T02:56:24.175Z,22.23
2022-10-23T02:58:54.899Z,27.77
2022-10-23T03:01:24.583Z,29.38
2022-10-23T03:06:19.331Z,24.33
2022-10-23T03:08:50.403Z,20.98
2022-10-23T03:11:19.197Z,24.13
2022-10-23T03:13:46.805Z,25.38
2022-10-23T03:16:16.201Z,22.67
2022-10-23T03:18:50.028Z,22.50
2022-10-23T03:21:18.381Z,24.15
2022-10-23T03:23:50.457Z,24.98
2022-10-23T03:26:22.692Z,25.25
2022-10-23T03:28:50.031Z,22.73
2022-10-23T03:31:20.233Z,26.15
2022-10-23T03:33:49.859Z,26.67
2022-10-23T03:36:17.188Z,27.92
2022-10-23T03:38:44.807Z,25.67
2022-10-23T03:41:12.103Z,25.70
2022-10-23T03:43:39.457Z,23.73
2022-10-23T03:46:09.809Z,23.98
2022-10-23T03:48:38.340Z,25.17
2022-10-23T03:51:06.875Z,20.80
2022-10-23T03:53:34.474Z,25.45
2022-10-23T03:56:04.346Z,21.27
2022-10-23T03:58:32.082Z,26.58
2022-10-23T04:01:02.644Z,21.52
2022-10-23T04:03:30.106Z,22.80
2022-10-23T04:05:57.615Z,28.42
2022-10-23T04:08:25.199Z,24.13
2022-10-23T04:13:31.188Z,25.52
2022-10-23T04:15:58.817Z,24.83
2022-10-23T04:18:26.096Z,24.50
2022-10-23T04:20:53.540Z,23.05
2022-10-23T04:23:20.946Z,26.65
2022-10-23T04:28:15.994Z,25.13
2022-10-23T04:30:43.444Z,26.35
2022-10-23T04:35:40.186Z,23.75
2022-10-23T04:38:10.508Z,20.20
2022-10-23T04:40:38.378Z,20.73
2022-10-23T04:43:05.874Z,24.25
2022-10-23T04:45:37.580Z,22.00
2022-10-23T04:48:07.886Z,23.58
2022-10-23T04:50:58.107Z,22.08
2022-10-23T04:53:40.210Z,19.48
2022-10-23T04:56:16.779Z,23.05
2022-10-23T04:58:49.661Z,24.10
2022-10-23T05:01:17.344Z,23.95
2022-10-23T05:03:44.817Z,33.45
2022-10-23T05:06:12.414Z,22.05
2022-10-23T05:09:06.701Z,25.08
2022-10-23T05:11:55.056Z,25.13
2022-10-23T05:14:22.965Z,22.83
2022-10-23T05:16:56.598Z,23.55
2022-10-23T05:19:27.880Z,23.15
2022-10-23T05:21:56.247Z,20.77
2022-10-23T05:24:30.635Z,30.83
2022-10-23T05:27:01.257Z,24.45
2022-10-23T05:29:31.392Z,21.40
2022-10-23T05:34:31.918Z,21.75
2022-10-23T05:37:01.660Z,24.58
2022-10-23T05:39:32.099Z,21.55
2022-10-23T05:42:01.786Z,23.77
2022-10-23T05:44:29.255Z,25.35
2022-10-23T05:49:55.297Z,23.73
2022-10-23T05:52:25.385Z,20.80
2022-10-23T05:55:11.214Z,21.75
2022-10-23T05:58:03.755Z,21.20
2022-10-23T06:01:08.709Z,27.15
2022-10-23T06:03:55.945Z,21.17
2022-10-23T06:06:29.920Z,15.88
2022-10-23T06:08:57.330Z,18.13
2022-10-23T06:11:24.975Z,19.42
2022-10-23T06:14:03.694Z,23.10
2022-10-23T06:16:32.063Z,17.70
2022-10-23T06:19:00.340Z,18.40
2022-10-23T06:21:28.843Z,19.10
2022-10-23T06:23:56.870Z,19.45
2022-10-23T06:26:30.571Z,16.33
2022-10-23T06:29:09.886Z,17.35
2022-10-23T06:31:38.530Z,14.75
2022-10-23T06:34:09.446Z,15.80
2022-10-23T06:36:38.108Z,18.08
2022-10-23T06:39:15.866Z,16.92
2022-10-23T06:42:06.503Z,17.65
2022-10-23T06:44:52.633Z,16.80
2022-10-23T06:47:51.814Z,35.45
2022-10-23T06:50:38.902Z,15.80
2022-10-23T06:53:22.432Z,17.05
2022-10-23T06:56:00.851Z,15.63
2022-10-23T06:58:28.850Z,18.63
2022-10-23T07:01:05.538Z,19.65
2022-10-23T07:03:34.735Z,20.35
2022-10-23T07:06:06.612Z,18.67
2022-10-23T07:08:34.044Z,13.97
2022-10-23T07:11:08.150Z,17.67
2022-10-23T07:13:36.433Z,17.42
2022-10-23T07:16:19.212Z,19.50
2022-10-23T07:18:47.131Z,15.27
2022-10-23T07:21:41.020Z,15.98
2022-10-23T07:24:23.196Z,17.15
2022-10-23T07:29:21.375Z,15.82
2022-10-23T07:31:49.298Z,15.95
2022-10-23T07:34:36.827Z,14.73
2022-10-23T07:37:24.564Z,16.95
2022-10-23T07:39:51.998Z,17.17
2022-10-23T07:42:19.462Z,16.13
2022-10-23T07:44:46.964Z,15.98
2022-10-23T07:47:14.359Z,15.80
2022-10-23T07:49:45.493Z,15.70
2022-10-23T07:52:13.181Z,14.10
2022-10-23T07:55:00.465Z,17.67
2022-10-23T07:57:33.079Z,14.80
2022-10-23T08:00:12.088Z,20.05
2022-10-23T08:02:42.311Z,12.57
2022-10-23T08:07:49.813Z,15.77
2022-10-23T08:10:18.053Z,16.10
2022-10-23T08:12:46.308Z,15.15
2022-10-23T08:15:16.810Z,19.65
2022-10-23T08:18:00.019Z,15.63
2022-10-23T08:20:46.173Z,19.40
2022-10-23T08:23:18.533Z,13.82
2022-10-23T08:28:16.672Z,12.70
2022-10-23T08:30:53.819Z,15.10
2022-10-23T08:33:21.707Z,14.15
2022-10-23T08:35:52.331Z,14.98
2022-10-23T08:38:28.792Z,17.20
2022-10-23T08:40:56.353Z,16.05
2022-10-23T08:43:47.583Z,11.95
2022-10-23T08:46:26.417Z,15.48
2022-10-23T08:49:32.422Z,13.60
2022-10-23T08:52:14.241Z,14.48
2022-10-23T08:55:01.273Z,13.07
2022-10-23T08:57:33.657Z,12.93
2022-10-23T09:00:06.749Z,13.73
2022-10-23T09:02:34.353Z,12.48
2022-10-23T09:05:01.848Z,12.43
2022-10-23T09:07:55.596Z,15.85
2022-10-23T09:10:35.367Z,16.15
2022-10-23T09:13:14.635Z,18.02
2022-10-23T09:15:53.274Z,13.02
2022-10-23T09:18:20.595Z,16.08
2022-10-23T09:20:48.400Z,17.63
2022-10-23T09:23:17.678Z,15.02
2022-10-23T09:25:48.763Z,15.18
2022-10-23T09:28:26.457Z,18.17
2022-10-23T09:31:09.042Z,11.98
2022-10-23T09:33:37.366Z,15.57
2022-10-23T09:36:06.338Z,12.70
2022-10-23T09:38:35.171Z,15.13
2022-10-23T09:41:17.436Z,9.55
2022-10-23T09:43:45.748Z,12.85
2022-10-23T09:46:16.259Z,10.50
2022-10-23T09:48:47.779Z,12.45
2022-10-23T09:51:19.537Z,11.82
2022-10-23T09:53:49.898Z,14.35
2022-10-23T09:56:29.482Z,10.55
2022-10-23T10:01:28.749Z,9.52
2022-10-23T10:04:06.461Z,12.73
2022-10-23T10:06:35.040Z,11.93
2022-10-23T10:09:08.580Z,11.55
2022-10-23T10:11:41.344Z,17.90
2022-10-23T10:14:29.048Z,12.77
2022-10-23T10:17:02.157Z,8.75
2022-10-23T10:19:41.874Z,12.65
2022-10-23T10:22:24.577Z,9.80
2022-10-23T10:24:51.990Z,10.00
2022-10-23T10:27:21.647Z,8.45
2022-10-23T10:32:36.991Z,11.55
2022-10-23T10:35:23.128Z,8.68
2022-10-23T10:37:58.955Z,19.77
2022-10-23T10:41:26.137Z,13.57
2022-10-23T10:44:15.438Z,8.38
2022-10-23T10:49:42.258Z,9.43
2022-10-23T10:52:49.235Z,9.80
2022-10-23T10:55:34.744Z,10.27
2022-10-23T10:58:04.854Z,8.70
2022-10-23T11:00:48.323Z,10.00
2022-10-23T11:03:39.952Z,10.93
2022-10-23T11:06:13.850Z,8.90
2022-10-23T11:08:57.605Z,10.25
2022-10-23T11:11:47.469Z,10.35
2022-10-23T11:14:27.005Z,8.05
2022-10-23T11:17:03.290Z,10.00
2022-10-23T11:20:04.610Z,13.52
2022-10-23T11:22:46.849Z,12.35
2022-10-23T11:25:38.746Z,7.18
2022-10-23T11:28:34.706Z,11.90
2022-10-23T11:31:19.570Z,12.82
2022-10-23T11:33:49.127Z,9.00
2022-10-23T11:36:35.898Z,9.43
2022-10-23T11:39:42.110Z,9.65
2022-10-23T11:42:12.128Z,9.00
2022-10-23T11:44:48.279Z,9.98
2022-10-23T11:47:39.349Z,10.77
2022-10-23T11:50:07.691Z,12.43
2022-10-23T11:53:09.202Z,13.02
2022-10-23T11:56:03.106Z,6.60
2022-10-23T11:58:46.719Z,10.10
2022-10-23T12:01:19.075Z,10.45
2022-10-23T12:03:51.658Z,15.10
2022-10-23T12:06:22.963Z,9.45
2022-10-23T12:08:52.183Z,9.25
2022-10-23T12:11:32.670Z,12.70
2022-10-23T12:14:00.274Z,8.65
2022-10-23T12:16:37.271Z,7.65
2022-10-23T12:19:37.135Z,11.93
2022-10-23T12:22:12.294Z,10.00
2022-10-23T12:24:45.433Z,13.65
2022-10-23T12:27:18.835Z,13.13
2022-10-23T12:29:59.515Z,11.18
2022-10-23T12:32:30.193Z,7.78
2022-10-23T12:35:00.674Z,9.02
2022-10-23T12:37:36.114Z,8.88
2022-10-23T12:40:18.234Z,8.07
2022-10-23T12:43:00.783Z,8.38
2022-10-23T12:45:32.626Z,9.75
2022-10-23T12:48:08.259Z,11.57
2022-10-23T12:50:35.762Z,9.65
2022-10-23T12:53:13.192Z,9.18
2022-10-23T12:56:02.829Z,8.52
2022-10-23T12:58:46.269Z,10.87
2022-10-23T13:01:23.361Z,10.52
2022-10-23T13:03:56.908Z,9.63
2022-10-23T13:06:40.777Z,6.93
2022-10-23T13:09:17.452Z,9.05
2022-10-23T13:12:00.874Z,7.70
2022-10-23T13:14:33.110Z,10.60
2022-10-23T13:17:03.371Z,10.48
2022-10-23T13:19:36.027Z,9.00
2022-10-23T13:22:17.616Z,9.52
2022-10-23T13:24:46.259Z,11.57
2022-10-23T13:27:35.386Z,7.90
2022-10-23T13:30:06.145Z,12.90
2022-10-23T13:32:42.068Z,10.00
2022-10-23T13:35:22.911Z,11.02
2022-10-23T13:37:51.308Z,11.10
2022-10-23T13:40:29.357Z,12.48
2022-10-23T13:42:57.434Z,10.65
2022-10-23T13:45:25.926Z,11.98
2022-10-23T13:47:53.814Z,11.70
2022-10-23T13:50:21.277Z,9.60
2022-10-23T13:52:48.937Z,12.43
2022-10-23T13:55:20.497Z,10.20
2022-10-23T13:57:50.069Z,9.90
2022-10-23T14:00:29.581Z,10.55
2022-10-23T14:02:57.470Z,6.57
2022-10-23T14:05:26.870Z,9.65
2022-10-23T14:10:26.924Z,9.13
2022-10-23T14:12:55.692Z,9.05
2022-10-23T14:15:30.501Z,8.63
2022-10-23T14:17:59.612Z,14.25
2022-10-23T14:20:30.957Z,9.80
2022-10-23T14:23:03.784Z,7.15
2022-10-23T14:25:35.816Z,8.27
2022-10-23T14:28:06.231Z,9.25
2022-10-23T14:30:53.763Z,7.30
2022-10-23T14:33:23.089Z,9.00
2022-10-23T14:38:26.218Z,7.55
2022-10-23T14:40:54.045Z,12.63
2022-10-23T14:43:22.214Z,8.77
2022-10-23T14:45:52.939Z,8.27
2022-10-23T14:48:20.588Z,9.77
2022-10-23T14:50:49.808Z,9.07
2022-10-23T14:53:18.336Z,7.13
2022-10-23T14:55:45.951Z,8.15
2022-10-23T14:58:15.969Z,7.47
2022-10-23T15:00:43.826Z,8.77
2022-10-23T15:03:13.294Z,11.65
2022-10-23T15:05:52.868Z,9.23
2022-10-23T15:08:25.910Z,6.80
2022-10-23T15:11:06.708Z,21.50
2022-10-23T15:16:09.318Z,8.95
2022-10-23T15:21:11.161Z,9.07
2022-10-23T15:23:49.378Z,8.00
2022-10-23T15:26:25.565Z,18.20
2022-10-23T15:28:58.766Z,12.82
2022-10-23T15:31:46.854Z,7.85
2022-10-23T15:34:21.920Z,8.27
2022-10-23T15:36:53.065Z,9.00
2022-10-23T15:42:19.215Z,10.70
2022-10-23T15:44:53.276Z,11.70
2022-10-23T15:47:23.624Z,11.25
2022-10-23T15:49:54.010Z,10.98
2022-10-23T15:52:21.486Z,8.80
2022-10-23T15:57:34.194Z,9.18
2022-10-23T16:00:04.383Z,8.60
2022-10-23T16:02:41.787Z,8.20
2022-10-23T16:05:12.048Z,11.68
2022-10-23T16:07:39.559Z,8.25
2022-10-23T16:10:30.070Z,9.95
2022-10-23T16:12:57.320Z,8.13
2022-10-23T16:15:32.278Z,7.38
2022-10-23T16:18:09.261Z,11.95
2022-10-23T16:20:43.028Z,7.10
2022-10-23T16:23:13.644Z,9.75
2022-10-23T16:25:43.576Z,9.95
2022-10-23T16:28:13.025Z,11.00
2022-10-23T16:33:17.611Z,10.07
2022-10-23T16:35:52.695Z,10.02
2022-10-23T16:38:23.227Z,7.47
2022-10-23T16:40:53.429Z,10.77
2022-10-23T16:43:42.996Z,10.93
2022-10-23T16:46:38.287Z,11.15
2022-10-23T16:49:12.202Z,11.70
2022-10-23T16:51:50.453Z,10.23
2022-10-23T16:54:31.328Z,6.63
2022-10-23T16:56:58.981Z,6.82
2022-10-23T16:59:26.863Z,8.68
2022-10-23T17:01:54.611Z,10.55
2022-10-23T17:04:22.082Z,12.07
2022-10-23T17:06:49.599Z,11.55
2022-10-23T17:09:19.355Z,11.63
2022-10-23T17:11:48.279Z,9.82
2022-10-23T17:14:17.652Z,9.60
2022-10-23T17:16:51.835Z,10.20
2022-10-23T17:22:12.644Z,9.38
2022-10-23T17:24:41.001Z,11.85
2022-10-23T17:27:08.522Z,10.35
2022-10-23T17:29:36.282Z,9.80
2022-10-23T17:32:04.237Z,9.90
2022-10-23T17:34:31.935Z,9.25
2022-10-23T17:37:10.226Z,10.48
2022-10-23T17:39:37.671Z,12.05
2022-10-23T17:42:05.260Z,7.68
2022-10-23T17:44:41.565Z,8.32
2022-10-23T17:50:19.612Z,13.32
2022-10-23T17:52:48.290Z,8.82
2022-10-23T17:55:19.033Z,9.82
2022-10-23T17:57:47.867Z,7.30
2022-10-23T18:00:16.256Z,7.15
2022-10-23T18:02:43.862Z,10.30
2022-10-23T18:05:11.335Z,7.78
2022-10-23T18:07:38.866Z,8.63
2022-10-23T18:10:06.396Z,7.78
2022-10-23T18:12:34.151Z,7.53
2022-10-23T18:15:01.713Z,7.47
2022-10-23T18:17:29.197Z,8.38
2022-10-23T18:20:01.648Z,10.63
2022-10-23T18:22:30.380Z,10.95
2022-10-23T18:24:58.078Z,8.95
2022-10-23T18:27:25.653Z,9.70
2022-10-23T18:29:54.243Z,11.02
2022-10-23T18:32:22.461Z,11.50
2022-10-23T18:34:51.128Z,9.02
2022-10-23T18:37:18.695Z,8.65
2022-10-23T18:39:46.136Z,13.57
2022-10-23T18:42:19.103Z,9.23
2022-10-23T18:44:50.089Z,11.13
2022-10-23T18:47:17.654Z,12.73
2022-10-23T18:49:45.206Z,8.48
2022-10-23T18:52:12.831Z,9.75
2022-10-23T18:54:43.191Z,11.75
2022-10-23T18:57:10.723Z,9.93
2022-10-23T18:59:38.120Z,9.73
2022-10-23T19:02:05.789Z,10.38
2022-10-23T19:04:35.622Z,10.00
2022-10-23T19:09:48.296Z,8.52
2022-10-23T19:12:16.391Z,19.48
2022-10-23T19:14:43.791Z,14.95
2022-10-23T19:17:19.611Z,15.75
2022-10-23T19:19:50.490Z,11.55
2022-10-23T19:22:17.917Z,6.32
2022-10-23T19:24:47.698Z,9.32
2022-10-23T19:27:15.302Z,6.38
2022-10-23T19:29:45.307Z,7.15
2022-10-23T19:32:12.917Z,5.55
2022-10-23T19:34:40.235Z,3.67
2022-10-23T19:37:07.825Z,9.18
2022-10-23T19:39:35.320Z,6.00
2022-10-23T19:42:02.947Z,3.58
2022-10-23T19:44:30.329Z,5.00
2022-10-23T19:46:57.649Z,6.88
2022-10-23T19:49:25.057Z,9.60
2022-10-23T19:51:52.458Z,8.93
2022-10-23T19:54:20.917Z,5.65
2022-10-23T19:56:48.607Z,6.43
2022-10-23T19:59:16.162Z,11.68
2022-10-23T20:01:46.368Z,5.82
2022-10-23T20:04:17.098Z,7.28
2022-10-23T20:06:44.378Z,7.47
2022-10-23T20:09:11.915Z,6.53
2022-10-23T20:11:40.174Z,11.15
2022-10-23T20:14:08.007Z,10.68
2022-10-23T20:16:36.951Z,11.45
2022-10-23T20:19:09.286Z,9.65
2022-10-23T20:21:37.654Z,8.55
2022-10-23T20:24:05.259Z,7.63
2022-10-23T20:26:32.694Z,8.88
2022-10-23T20:29:03.150Z,8.05
2022-10-23T20:31:32.084Z,4.80
2022-10-23T20:34:00.179Z,6.22
2022-10-23T20:36:40.178Z,5.53
2022-10-23T20:39:14.690Z,8.60
2022-10-23T20:41:45.223Z,6.88
2022-10-23T20:44:13.842Z,9.80
2022-10-23T20:46:41.419Z,12.65
2022-10-23T20:49:10.270Z,8.35
2022-10-23T20:51:37.673Z,13.25
2022-10-23T20:54:06.638Z,11.65
2022-10-23T20:56:36.035Z,11.00
2022-10-23T20:59:07.831Z,14.85
2022-10-23T21:01:35.611Z,12.18
2022-10-23T21:04:03.918Z,14.77
2022-10-23T21:06:45.804Z,11.75
2022-10-23T21:09:22.488Z,10.48
2022-10-23T21:11:50.062Z,11.80
2022-10-23T21:14:17.531Z,13.95
2022-10-23T21:16:46.594Z,9.93
2022-10-23T21:19:18.823Z,7.75
2022-10-23T21:21:46.409Z,7.90
2022-10-23T21:24:16.309Z,9.50
2022-10-23T21:26:44.214Z,6.93
2022-10-23T21:29:20.122Z,7.88
2022-10-23T21:31:55.231Z,5.80
2022-10-23T21:34:22.945Z,7.78
2022-10-23T21:37:11.818Z,7.50
2022-10-23T21:39:38.804Z,6.95
2022-10-23T21:42:06.320Z,6.95
2022-10-23T21:44:33.704Z,8.43
2022-10-23T21:47:01.130Z,6.57
2022-10-23T21:49:28.576Z,6.15
2022-10-23T21:51:56.076Z,5.95
2022-10-23T21:54:23.385Z,6.18
2022-10-23T21:56:53.822Z,7.30
2022-10-23T21:59:24.770Z,7.30
2022-10-23T22:01:53.573Z,5.57
2022-10-23T22:04:22.142Z,5.68
2022-10-23T22:06:50.296Z,6.68
2022-10-23T22:09:21.585Z,6.15
2022-10-23T22:11:50.170Z,4.75
2022-10-23T22:14:17.540Z,4.87
2022-10-23T22:16:44.934Z,5.10
2022-10-23T22:19:13.042Z,5.57
2022-10-23T22:21:43.722Z,6.57
2022-10-23T22:24:11.064Z,5.43
2022-10-23T22:26:41.292Z,5.90
2022-10-23T22:29:09.952Z,5.95
2022-10-23T22:31:37.802Z,6.37
2022-10-23T22:34:18.574Z,5.07
2022-10-23T22:36:54.555Z,5.68
2022-10-23T22:39:22.553Z,5.60
2022-10-23T22:41:50.434Z,6.65
2022-10-23T22:44:17.759Z,4.75
2022-10-23T22:46:45.201Z,5.78
2022-10-23T22:49:12.700Z,3.58
2022-10-23T22:51:40.245Z,8.95
2022-10-23T22:54:07.747Z,6.80
2022-10-23T22:56:35.004Z,6.10
2022-10-23T22:59:02.336Z,6.07
2022-10-23T23:01:29.656Z,5.03
2022-10-23T23:04:04.429Z,8.15
2022-10-23T23:06:45.591Z,5.85
2022-10-23T23:09:17.007Z,6.60
2022-10-23T23:11:51.260Z,12.65
2022-10-23T23:14:22.937Z,7.00
2022-10-23T23:16:51.776Z,9.68
2022-10-23T23:19:19.043Z,5.10
2022-10-23T23:21:46.319Z,8.88
2022-10-23T23:24:13.550Z,7.82
2022-10-23T23:26:40.959Z,8.48
2022-10-23T23:29:08.472Z,7.10
2022-10-23T23:31:36.937Z,10.07
2022-10-23T23:34:04.276Z,14.95
2022-10-23T23:36:31.579Z,8.65
2022-10-23T23:38:59.120Z,10.23
2022-10-23T23:41:27.942Z,7.28
2022-10-23T23:43:56.192Z,8.50
2022-10-23T23:46:23.760Z,6.30
2022-10-23T23:48:51.192Z,7.60
2022-10-23T23:51:19.260Z,10.18
2022-10-23T23:53:50.091Z,9.82
2022-10-23T23:56:17.855Z,9.80
2022-10-23T23:58:45.363Z,8.25
